Time;durP1;ratioP1;P1;durP2;ratioP2;P2;SDS_P1;SDS_P2;PMS_P1;PMS_P2;Temp;Humidity;BMP_temperature;BMP_pressure;BME280_temperature;BME280_humidity;BME280_pressure;Samples;Min_cycle;Max_cycle;Signal;HPM_P1;HPM_P2
2022/08/07 00:00:36;;;;;;;7.85;5.03;;;;;;;17.39;52.06;102778.19;5149991;28;20874;-61
2022/08/07 00:03:08;;;;;;;6.68;4.82;;;;;;;17.36;52.25;102773.13;5150664;28;20447;-61
2022/08/07 00:05:41;;;;;;;7.88;5.28;;;;;;;17.34;52.24;102775.09;5150915;28;20433;-62
2022/08/07 00:08:13;;;;;;;9.20;5.07;;;;;;;17.32;52.37;102778.94;5150555;28;20934;-62
2022/08/07 00:10:47;;;;;;;8.35;5.40;;;;;;;17.29;52.45;102769.38;5149707;28;20424;-62
2022/08/07 00:13:21;;;;;;;10.27;5.47;;;;;;;17.23;52.66;102767.28;5151046;28;20413;-61
2022/08/07 00:15:55;;;;;;;9.55;5.40;;;;;;;17.24;52.68;102768.97;5148389;28;20417;-58
2022/08/07 00:18:29;;;;;;;7.60;5.63;;;;;;;17.22;52.64;102776.31;5150082;28;20415;-60
2022/08/07 00:21:05;;;;;;;8.00;5.28;;;;;;;17.21;52.79;102771.94;5150881;28;20417;-61
2022/08/07 00:23:40;;;;;;;9.38;5.75;;;;;;;17.20;53.14;102804.97;5150686;28;20431;-61
2022/08/07 00:26:13;;;;;;;9.15;5.95;;;;;;;17.16;52.97;102784.91;5150056;28;20827;-61
2022/08/07 00:28:46;;;;;;;10.57;5.85;;;;;;;17.15;52.96;102772.50;5155684;28;20426;-61
2022/08/07 00:31:18;;;;;;;9.57;6.03;;;;;;;17.13;53.17;102771.84;5163776;28;20967;-61
2022/08/07 00:33:50;;;;;;;11.30;6.50;;;;;;;17.11;53.40;102765.78;5170355;28;20928;-62
2022/08/07 00:36:23;;;;;;;9.00;5.47;;;;;;;17.08;53.10;102774.09;5147690;28;20404;-62
2022/08/07 00:38:55;;;;;;;8.40;5.45;;;;;;;17.03;53.29;102767.38;5147712;28;20858;-60
2022/08/07 00:41:33;;;;;;;9.85;5.35;;;;;;;17.01;53.37;102774.66;5150646;28;20448;-61
2022/08/07 00:44:06;;;;;;;8.07;5.20;;;;;;;16.91;53.65;102757.84;5149919;28;20894;-61
2022/08/07 00:46:38;;;;;;;7.15;5.00;;;;;;;16.96;53.61;102776.09;5148506;28;20550;-62
2022/08/07 00:49:11;;;;;;;8.55;5.07;;;;;;;16.95;53.75;102769.06;5137003;28;20832;-61
2022/08/07 00:51:43;;;;;;;8.32;5.10;;;;;;;16.91;53.77;102765.84;5147361;28;27266;-62
2022/08/07 00:54:16;;;;;;;9.48;4.80;;;;;;;16.90;53.90;102766.81;5141477;28;20738;-61
2022/08/07 00:56:51;;;;;;;9.27;5.38;;;;;;;16.88;53.94;102758.13;5150557;28;20722;-62
2022/08/07 00:59:23;;;;;;;10.18;5.97;;;;;;;16.87;53.92;102767.13;5150230;28;21274;-61
2022/08/07 01:01:55;;;;;;;10.27;5.53;;;;;;;16.84;53.69;102756.72;5147245;28;20870;-61
2022/08/07 01:04:28;;;;;;;8.25;5.25;;;;;;;16.82;53.89;102756.03;5149734;28;20892;-62
2022/08/07 01:07:01;;;;;;;11.15;5.75;;;;;;;16.77;54.18;102756.47;5146745;28;20866;-62
2022/08/07 01:09:34;;;;;;;9.57;5.63;;;;;;;16.76;53.95;102753.97;5147655;28;20822;-61
2022/08/07 01:12:08;;;;;;;8.65;5.63;;;;;;;16.73;54.44;102751.53;5148142;28;20424;-61
2022/08/07 01:14:41;;;;;;;8.82;5.03;;;;;;;16.70;54.44;102744.66;5153865;28;20492;-62
2022/08/07 01:17:13;;;;;;;9.82;5.55;;;;;;;16.67;54.52;102750.28;5143998;28;20726;-66
2022/08/07 01:19:46;;;;;;;11.57;5.70;;;;;;;16.66;54.65;102748.59;5149748;28;20870;-61
2022/08/07 01:22:21;;;;;;;9.73;5.13;;;;;;;16.65;54.68;102746.91;5145269;28;20444;-61
2022/08/07 01:24:53;;;;;;;8.52;4.90;;;;;;;16.63;54.81;102748.03;5152931;28;20415;-61
2022/08/07 01:27:26;;;;;;;10.15;5.13;;;;;;;16.62;54.82;102744.53;5167968;28;20398;-61
2022/08/07 01:29:59;;;;;;;7.77;4.90;;;;;;;16.62;54.79;102754.34;5169724;28;20423;-62
2022/08/07 01:32:31;;;;;;;10.13;5.13;;;;;;;16.59;55.31;102742.16;5151959;28;20413;-62
2022/08/07 01:35:04;;;;;;;8.82;4.72;;;;;;;16.56;55.03;102748.59;5148984;28;20413;-62
2022/08/07 01:37:38;;;;;;;9.00;4.80;;;;;;;16.54;55.05;102745.25;5149111;28;20436;-62
2022/08/07 01:40:12;;;;;;;9.07;4.90;;;;;;;16.54;55.03;102747.91;5148883;28;20874;-61
2022/08/07 01:42:44;;;;;;;9.60;5.33;;;;;;;16.52;55.11;102741.88;5149257;28;20413;-61
2022/08/07 01:45:20;;;;;;;8.32;5.57;;;;;;;16.50;55.09;102738.50;5149387;28;20409;-62
2022/08/07 01:47:52;;;;;;;7.10;4.63;;;;;;;16.51;55.25;102744.69;5148937;28;20452;-61
2022/08/07 01:50:26;;;;;;;6.68;4.43;;;;;;;16.52;55.33;102739.22;5143497;28;20520;-61
2022/08/07 01:53:02;;;;;;;8.73;4.95;;;;;;;16.50;55.34;102735.00;5145046;28;20814;-60
2022/08/07 01:55:47;;;;;;;8.85;4.63;;;;;;;16.48;55.35;102724.47;5140088;28;20572;-61
2022/08/07 01:58:21;;;;;;;7.80;4.47;;;;;;;16.41;55.49;102722.50;5143912;28;20474;-60
2022/08/07 02:01:00;;;;;;;8.77;5.70;;;;;;;16.46;55.48;102736.28;5138318;28;20412;-59
2022/08/07 02:03:35;;;;;;;9.38;4.75;;;;;;;16.44;55.57;102732.91;5140931;28;20798;-61
2022/08/07 02:06:10;;;;;;;9.38;5.22;;;;;;;16.43;55.59;102731.22;5148601;28;20822;-62
2022/08/07 02:08:45;;;;;;;9.25;4.60;;;;;;;16.39;55.61;102728.00;5148344;28;20475;-61
2022/08/07 02:11:18;;;;;;;7.22;4.32;;;;;;;16.38;55.69;102728.97;5149084;28;20750;-62
2022/08/07 02:13:52;;;;;;;8.13;4.60;;;;;;;16.35;55.57;102724.78;5152121;28;20735;-62
2022/08/07 02:16:25;;;;;;;6.60;4.13;;;;;;;16.34;55.64;102719.56;5146720;28;20412;-60
2022/08/07 02:18:59;;;;;;;6.15;3.80;;;;;;;16.33;55.79;102723.22;5148540;28;20401;-62
2022/08/07 02:21:34;;;;;;;8.20;4.13;;;;;;;16.32;55.86;102730.41;5154856;28;20429;-61
2022/08/07 02:24:08;;;;;;;6.00;3.90;;;;;;;16.29;55.87;102729.81;5166984;28;20779;-62
2022/08/07 02:26:41;;;;;;;5.95;4.10;;;;;;;16.27;56.08;102729.13;5169471;28;20423;-62
2022/08/07 02:29:14;;;;;;;6.65;3.85;;;;;;;16.27;55.90;102726.47;5138152;28;20537;-61
2022/08/07 02:31:47;;;;;;;5.38;3.83;;;;;;;16.23;56.06;102730.38;5150976;28;20889;-60
2022/08/07 02:34:20;;;;;;;6.80;3.83;;;;;;;16.20;56.08;102728.03;5153026;28;20880;-61
2022/08/07 02:36:53;;;;;;;6.15;3.75;;;;;;;16.18;56.13;102725.47;5140474;28;20416;-61
2022/08/07 02:39:28;;;;;;;5.35;3.88;;;;;;;16.15;56.15;102723.09;5117904;28;20420;-61
2022/08/07 02:42:01;;;;;;;5.70;4.00;;;;;;;16.12;56.24;102729.53;5138675;28;20412;-60
2022/08/07 02:44:35;;;;;;;4.47;3.33;;;;;;;16.11;56.26;102727.88;5152451;28;20580;-61
2022/08/07 02:47:08;;;;;;;4.65;3.13;;;;;;;16.10;56.34;102731.53;5151824;28;20504;-61
2022/08/07 02:49:41;;;;;;;6.22;3.67;;;;;;;16.05;56.33;102716.94;5137885;28;20878;-61
2022/08/07 02:52:19;;;;;;;4.63;3.40;;;;;;;16.06;56.49;102711.44;5140195;28;20897;-61
2022/08/07 02:54:53;;;;;;;6.68;3.63;;;;;;;16.05;56.50;102717.78;5148155;28;20442;-61
2022/08/07 02:57:27;;;;;;;4.60;3.70;;;;;;;16.03;56.59;102713.56;5130608;28;20697;-62
2022/08/07 03:00:01;;;;;;;5.95;3.78;;;;;;;16.00;56.62;102720.00;5132174;28;20434;-63
2022/08/07 03:02:35;;;;;;;6.15;3.65;;;;;;;15.98;56.60;102719.31;5124032;28;20858;-61
2022/08/07 03:05:09;;;;;;;5.33;3.70;;;;;;;15.95;56.68;102722.25;5131461;28;20601;-57
2022/08/07 03:07:43;;;;;;;4.10;3.00;;;;;;;15.91;56.73;102715.50;5131744;28;20948;-61
2022/08/07 03:10:17;;;;;;;5.32;3.63;;;;;;;15.90;56.86;102722.66;5143297;28;20439;-62
2022/08/07 03:12:51;;;;;;;6.53;3.83;;;;;;;15.89;56.87;102720.16;5150868;28;20881;-61
2022/08/07 03:15:23;;;;;;;4.90;3.30;;;;;;;15.88;56.80;102721.09;5151719;28;20872;-63
2022/08/07 03:17:56;;;;;;;5.53;3.40;;;;;;;15.86;56.88;102718.59;5158475;28;20426;-60
2022/08/07 03:20:28;;;;;;;6.30;3.70;;;;;;;15.84;56.86;102714.38;5172005;28;20439;-61
2022/08/07 03:23:02;;;;;;;5.55;3.13;;;;;;;15.82;56.95;102717.16;5171035;28;20857;-62
2022/08/07 03:25:39;;;;;;;4.88;3.15;;;;;;;15.80;56.99;102713.00;5151287;28;20432;-61
2022/08/07 03:28:16;;;;;;;4.40;3.25;;;;;;;15.77;56.91;102710.59;5151116;28;20873;-62
2022/08/07 03:31:17;;;;;;;6.05;3.33;;;;;;;15.74;57.15;102719.69;5147497;28;20415;-62
2022/08/07 03:33:43;;;;;;;6.80;3.20;;;;;;;15.71;57.03;102740.44;5149769;28;20405;-60
2022/08/07 03:36:17;;;;;;;4.32;3.25;;;;;;;15.68;57.14;102715.75;5147609;28;20752;-62
2022/08/07 03:38:51;;;;;;;5.80;3.15;;;;;;;15.64;57.17;102709.00;5146440;28;20812;-61
2022/08/07 03:41:25;;;;;;;6.88;3.58;;;;;;;15.63;57.16;102704.63;5149051;28;20487;-45
2022/08/07 03:43:58;;;;;;;5.68;4.22;;;;;;;15.63;57.27;102707.31;5150974;28;20435;-61
2022/08/07 03:46:32;;;;;;;5.70;3.42;;;;;;;15.61;57.30;102703.94;5150431;28;20785;-61
2022/08/07 03:49:04;;;;;;;5.13;3.30;;;;;;;15.60;57.36;102706.72;5141587;28;20418;-61
2022/08/07 03:51:37;;;;;;;4.68;3.78;;;;;;;15.58;57.36;102698.91;5144809;28;20861;-61
2022/08/07 03:54:10;;;;;;;4.90;3.40;;;;;;;15.56;57.34;102700.84;5150464;28;20816;-60
2022/08/07 03:56:44;;;;;;;5.07;3.92;;;;;;;15.55;57.48;102701.00;5150621;28;20432;-60
2022/08/07 03:59:16;;;;;;;5.18;3.38;;;;;;;15.53;57.56;102703.78;5151162;28;20498;-62
2022/08/07 04:01:49;;;;;;;6.45;3.78;;;;;;;15.45;57.55;102695.63;5150244;28;20428;-61
2022/08/07 04:04:22;;;;;;;5.30;4.05;;;;;;;15.50;57.63;102695.22;5150889;28;20744;-62
2022/08/07 04:06:55;;;;;;;6.22;3.72;;;;;;;15.49;57.71;102697.06;5148497;28;20476;-61
2022/08/07 04:09:29;;;;;;;5.90;3.83;;;;;;;15.47;57.75;102695.50;5150200;28;20419;-61
2022/08/07 04:12:04;;;;;;;5.80;3.80;;;;;;;15.45;57.69;102688.50;5150036;28;20417;-61
2022/08/07 04:14:36;;;;;;;4.95;3.53;;;;;;;15.44;57.87;102691.28;5148090;28;20520;-61
2022/08/07 04:17:09;;;;;;;6.97;3.83;;;;;;;15.41;57.93;102692.41;5149861;28;20421;-61
2022/08/07 04:19:42;;;;;;;4.80;3.50;;;;;;;15.45;57.88;102693.84;5146079;28;20424;-61
2022/08/07 04:22:17;;;;;;;5.43;3.80;;;;;;;15.44;57.89;102696.63;5148887;28;20448;-62
2022/08/07 04:24:50;;;;;;;6.25;4.00;;;;;;;15.43;57.96;102705.59;5151115;28;21023;-60
2022/08/07 04:27:23;;;;;;;8.02;3.80;;;;;;;15.44;57.95;102704.59;5143332;28;20736;-61
2022/08/07 04:29:56;;;;;;;4.82;3.60;;;;;;;15.44;58.21;102707.25;5144801;28;20400;-60
2022/08/07 04:32:29;;;;;;;5.85;3.90;;;;;;;15.43;58.09;102710.91;5147222;28;20913;-60
2022/08/07 04:35:03;;;;;;;5.07;3.70;;;;;;;15.43;58.25;102711.75;5150033;28;20781;-61
2022/08/07 04:37:37;;;;;;;5.95;3.38;;;;;;;15.44;58.02;102712.59;5136799;28;20442;-62
2022/08/07 04:40:11;;;;;;;4.53;3.47;;;;;;;15.44;58.26;102723.25;5115772;28;20909;-61
2022/08/07 04:42:46;;;;;;;7.32;4.60;;;;;;;15.43;58.35;102710.91;5116286;28;21034;-61
2022/08/07 04:45:19;;;;;;;7.75;4.50;;;;;;;15.46;58.37;102715.97;5122183;28;20412;-61
2022/08/07 04:48:00;;;;;;;6.15;3.72;;;;;;;15.47;58.38;102717.66;5141205;28;20427;-61
2022/08/07 04:50:38;;;;;;;6.10;4.15;;;;;;;15.51;58.50;102713.72;5147744;28;20427;-61
2022/08/07 04:53:19;;;;;;;9.10;5.45;;;;;;;15.52;58.47;102720.75;5149436;28;20770;-61
2022/08/07 04:55:57;;;;;;;6.97;4.70;;;;;;;15.53;58.39;102717.09;5145111;28;20813;-60
2022/08/07 04:58:41;;;;;;;7.25;3.97;;;;;;;15.57;58.55;102713.16;5138655;28;20414;-63
2022/08/07 05:01:17;;;;;;;5.47;3.95;;;;;;;15.55;58.41;102714.31;5138832;28;20432;-60
2022/08/07 05:03:58;;;;;;;5.13;4.03;;;;;;;15.64;58.45;102724.97;5145163;28;20924;-61
2022/08/07 05:06:38;;;;;;;5.80;4.07;;;;;;;15.66;58.47;102719.50;5146951;28;20877;-61
2022/08/07 05:09:18;;;;;;;4.90;3.67;;;;;;;15.64;58.34;102709.00;5138973;28;20752;-61
2022/08/07 05:11:53;;;;;;;7.10;3.97;;;;;;;15.78;58.49;102725.59;5120991;28;20506;-61
2022/08/07 05:14:33;;;;;;;4.85;3.60;;;;;;;15.81;58.42;102733.31;5127988;28;20405;-62
2022/08/07 05:17:08;;;;;;;6.10;5.13;;;;;;;15.87;58.46;102724.78;5148190;28;20439;-62
2022/08/07 05:19:46;;;;;;;7.27;4.57;;;;;;;15.89;58.58;102723.66;5148989;28;20866;-61
2022/08/07 05:22:21;;;;;;;9.13;5.05;;;;;;;15.74;58.40;102689.56;5149093;28;20423;-61
2022/08/07 05:24:56;;;;;;;5.63;3.92;;;;;;;15.99;58.30;102723.66;5148885;28;20417;-61
2022/08/07 05:27:28;;;;;;;7.80;4.60;;;;;;;16.03;58.42;102722.38;5147204;28;20413;-62
2022/08/07 05:30:03;;;;;;;10.38;3.95;;;;;;;16.09;58.50;102726.31;5149246;28;20464;-59
2022/08/07 05:32:37;;;;;;;9.70;6.70;;;;;;;16.16;58.31;102718.59;5148495;28;20799;-60
2022/08/07 05:35:11;;;;;;;21.87;13.50;;;;;;;16.23;58.41;102725.03;5145344;28;20443;-61
2022/08/07 05:37:44;;;;;;;21.50;15.38;;;;;;;16.31;58.37;102723.34;5144831;28;20869;-60
2022/08/07 05:40:18;;;;;;;11.18;7.82;;;;;;;16.36;58.30;102721.13;5148884;28;20940;-59
2022/08/07 05:42:51;;;;;;;6.57;5.25;;;;;;;16.45;58.28;102724.78;5144457;28;20420;-61
2022/08/07 05:45:26;;;;;;;6.93;5.90;;;;;;;16.53;57.92;102721.38;5148575;28;20417;-61
2022/08/07 05:47:59;;;;;;;6.83;4.83;;;;;;;16.65;58.00;102730.06;5134006;28;20863;-59
2022/08/07 05:50:34;;;;;;;7.30;4.82;;;;;;;17.60;57.38;102726.34;5144330;28;20771;-60
2022/08/07 05:53:07;;;;;;;8.32;4.72;;;;;;;19.38;55.73;102721.69;5141147;28;20765;-60
2022/08/07 05:55:40;;;;;;;5.45;3.60;;;;;;;21.43;53.68;102726.00;5139194;28;20775;-62
2022/08/07 05:58:13;;;;;;;4.88;3.53;;;;;;;23.38;51.25;102713.63;5149516;28;20511;-62
2022/08/07 06:00:48;;;;;;;4.70;3.05;;;;;;;25.15;49.00;102719.97;5153123;28;20463;-61
2022/08/07 06:03:25;;;;;;;5.00;3.47;;;;;;;26.75;46.92;102725.59;5149288;28;20922;-60
2022/08/07 06:05:59;;;;;;;4.43;3.25;;;;;;;28.11;44.98;102724.53;5153311;28;20417;-60
2022/08/07 06:08:32;;;;;;;4.18;3.15;;;;;;;29.37;43.22;102725.94;5167818;28;20430;-60
2022/08/07 06:11:04;;;;;;;4.47;3.30;;;;;;;30.49;41.42;102727.97;5166394;28;20935;-62
2022/08/07 06:13:37;;;;;;;5.53;3.47;;;;;;;31.50;39.62;102727.63;5155957;28;20739;-61
2022/08/07 06:16:11;;;;;;;4.85;3.08;;;;;;;32.19;38.46;102700.16;5152651;28;20725;-62
2022/08/07 06:18:45;;;;;;;3.92;3.47;;;;;;;33.07;36.76;102731.19;5152487;28;20822;-59
2022/08/07 06:21:18;;;;;;;6.50;3.35;;;;;;;33.74;35.88;102730.81;5153371;28;20734;-61
2022/08/07 06:23:50;;;;;;;6.47;3.40;;;;;;;34.48;34.85;102733.84;5152619;28;20419;-63
2022/08/07 06:26:23;;;;;;;3.28;2.97;;;;;;;35.11;33.56;102745.69;5152142;28;20868;-60
2022/08/07 06:28:58;;;;;;;6.40;3.05;;;;;;;35.66;32.92;102744.19;5150975;28;20803;-51
2022/08/07 06:31:32;;;;;;;4.30;3.10;;;;;;;36.08;31.80;102745.88;5151546;28;20424;-60
2022/08/07 06:34:05;;;;;;;4.82;3.30;;;;;;;36.46;31.14;102740.84;5152816;28;20450;-60
2022/08/07 06:36:37;;;;;;;4.07;2.80;;;;;;;36.91;30.56;102741.78;5145323;28;20504;-60
2022/08/07 06:39:09;;;;;;;6.18;3.50;;;;;;;37.29;29.86;102748.50;5129688;28;20875;-59
2022/08/07 06:41:47;;;;;;;5.28;2.85;;;;;;;37.68;29.22;102755.16;5143090;28;20417;-60
2022/08/07 06:44:21;;;;;;;3.92;2.80;;;;;;;38.03;28.76;102751.28;5152817;28;20854;-59
2022/08/07 06:46:55;;;;;;;3.83;2.90;;;;;;;38.31;28.08;102757.88;5148074;28;20494;-59
2022/08/07 06:49:28;;;;;;;4.47;3.38;;;;;;;38.44;27.80;102735.16;5150036;28;20811;-59
2022/08/07 06:52:01;;;;;;;6.80;3.25;;;;;;;38.74;27.11;102749.69;5152420;28;20838;-58
2022/08/07 06:54:35;;;;;;;4.70;3.45;;;;;;;38.96;26.72;102747.22;5152168;28;20426;-60
2022/08/07 06:57:09;;;;;;;4.68;3.22;;;;;;;39.18;26.41;102743.88;5147338;28;20835;-59
2022/08/07 06:59:43;;;;;;;5.50;3.00;;;;;;;39.45;25.91;102753.44;5152549;28;20456;-59
2022/08/07 07:02:21;;;;;;;4.80;3.33;;;;;;;39.67;25.64;102750.03;5146993;28;20617;-59
2022/08/07 07:04:53;;;;;;;4.68;3.35;;;;;;;39.80;25.38;102743.78;5172165;28;20542;-59
2022/08/07 07:07:26;;;;;;;3.45;2.55;;;;;;;39.92;25.08;102737.75;5169391;28;20505;-55
2022/08/07 07:09:58;;;;;;;4.30;2.33;;;;;;;40.03;24.84;102743.91;5147855;28;20903;-58
2022/08/07 07:12:39;;;;;;;4.65;3.03;;;;;;;40.23;24.33;102740.81;5151546;28;20447;-60
2022/08/07 07:15:17;;;;;;;3.78;2.60;;;;;;;40.34;24.43;102739.47;5151207;28;20880;-57
2022/08/07 07:18:00;;;;;;;4.05;2.55;;;;;;;40.44;24.25;102738.44;5151166;28;20956;-58
2022/08/07 07:20:37;;;;;;;3.75;2.63;;;;;;;40.50;23.80;102733.63;5149634;28;20721;-58
2022/08/07 07:23:11;;;;;;;6.17;3.17;;;;;;;40.53;23.90;102733.00;5151571;28;20988;-57
2022/08/07 07:25:47;;;;;;;5.15;2.85;;;;;;;40.63;23.60;102720.91;5151778;28;20941;-57
2022/08/07 07:28:24;;;;;;;5.55;2.70;;;;;;;40.48;23.27;102694.34;5151020;28;20413;-57
2022/08/07 07:31:00;;;;;;;4.82;2.05;;;;;;;40.55;23.20;102719.69;5149110;28;20810;-57
2022/08/07 07:33:37;;;;;;;4.25;2.22;;;;;;;40.48;23.07;102714.56;5152022;28;20415;-55
2022/08/07 07:36:11;;;;;;;4.07;2.63;;;;;;;40.44;23.22;102707.16;5148344;28;20909;-57
2022/08/07 07:38:44;;;;;;;5.05;2.90;;;;;;;40.48;23.18;102714.56;5145696;28;20496;-56
2022/08/07 07:41:19;;;;;;;4.95;2.63;;;;;;;40.48;22.82;102719.25;5146583;28;20903;-57
2022/08/07 07:43:53;;;;;;;3.72;2.40;;;;;;;40.37;22.89;102717.84;5151372;28;20808;-55
2022/08/07 07:46:28;;;;;;;3.78;2.58;;;;;;;40.25;23.03;102724.69;5147845;28;20412;-51
2022/08/07 07:49:04;;;;;;;5.75;2.42;;;;;;;40.11;23.19;102730.22;5146144;28;20417;-54
2022/08/07 07:51:38;;;;;;;5.10;2.78;;;;;;;39.95;22.97;102716.94;5148288;28;20826;-54
2022/08/07 07:54:11;;;;;;;4.65;2.70;;;;;;;39.88;23.10;102723.69;5146887;28;20927;-56
2022/08/07 07:56:44;;;;;;;3.45;2.58;;;;;;;39.81;23.15;102722.47;5133364;28;20734;-55
2022/08/07 07:59:18;;;;;;;4.05;3.03;;;;;;;39.64;23.24;102734.06;5146369;28;20997;-54
2022/08/07 08:01:51;;;;;;;5.93;3.67;;;;;;;39.45;23.39;102716.69;5167250;28;20438;-53
2022/08/07 08:04:27;;;;;;;6.57;2.50;;;;;;;39.30;23.48;102717.75;5168345;28;20803;-53
2022/08/07 08:07:01;;;;;;;5.50;2.40;;;;;;;39.08;23.61;102718.31;5144750;28;20417;-53
2022/08/07 08:09:34;;;;;;;3.60;2.43;;;;;;;38.86;23.51;102718.91;5146789;28;20435;-54
2022/08/07 08:12:08;;;;;;;4.28;2.70;;;;;;;38.67;23.76;102713.34;5148935;28;20505;-55
2022/08/07 08:14:40;;;;;;;6.00;2.83;;;;;;;38.52;24.16;102717.09;5154448;28;20805;-52
2022/08/07 08:17:15;;;;;;;5.45;2.95;;;;;;;38.25;24.09;102714.91;5151097;28;20447;-52
2022/08/07 08:19:51;;;;;;;4.82;2.50;;;;;;;37.84;24.50;102716.09;5149746;28;20448;-54
2022/08/07 08:28:09;;;;;;;5.05;2.42;;;;;;;37.14;24.88;102713.59;5145063;28;20417;-54
2022/08/07 08:30:44;;;;;;;6.32;2.80;;;;;;;36.97;24.96;102715.03;5146229;28;20714;-53
2022/08/07 08:33:19;;;;;;;5.47;2.88;;;;;;;36.81;24.84;102709.63;5150565;28;20844;-54
2022/08/07 08:35:54;;;;;;;5.07;2.67;;;;;;;36.72;24.93;102707.75;5149366;28;20409;-51
2022/08/07 08:38:32;;;;;;;2.97;1.75;;;;;;;36.60;24.82;102708.06;5148155;28;20412;-54
2022/08/07 08:41:14;;;;;;;3.58;2.03;;;;;;;36.38;25.13;102711.13;5150175;28;20510;-54
2022/08/07 08:43:57;;;;;;;4.05;1.52;;;;;;;35.96;25.14;102715.88;5149875;28;20444;-54
2022/08/07 08:46:42;;;;;;;4.38;1.90;;;;;;;35.58;25.18;102714.50;5147600;28;21178;-54
2022/08/07 08:49:24;;;;;;;5.57;3.08;;;;;;;35.34;25.33;102711.44;5146139;28;20424;-52
2022/08/07 08:52:16;;;;;;;4.85;2.53;;;;;;;35.17;25.29;102711.66;5134521;28;20747;-50
2022/08/07 08:54:56;;;;;;;5.65;2.08;;;;;;;35.00;25.43;102716.53;5153291;28;20495;-52
2022/08/07 08:57:38;;;;;;;5.57;2.20;;;;;;;34.59;25.85;102714.44;5148348;28;20790;-52
2022/08/07 09:00:12;;;;;;;3.67;2.42;;;;;;;33.95;26.06;102704.41;5149407;28;20424;-50
2022/08/07 09:02:56;;;;;;;4.53;2.10;;;;;;;33.67;26.37;102708.28;5149535;28;20511;-51
2022/08/07 09:05:40;;;;;;;3.88;2.55;;;;;;;33.43;26.10;102707.75;5139898;28;20561;-49
2022/08/07 09:08:26;;;;;;;6.30;2.42;;;;;;;33.24;26.24;102709.22;5145310;28;20420;-53
2022/08/07 09:11:11;;;;;;;5.13;2.38;;;;;;;33.13;26.50;102707.44;5139780;28;20800;-53
2022/08/07 09:14:01;;;;;;;4.27;2.27;;;;;;;33.02;26.35;102707.31;5147425;28;20706;-53
2022/08/07 09:16:51;;;;;;;3.45;2.35;;;;;;;32.87;26.27;102695.34;5143799;28;20420;-56
2022/08/07 09:19:45;;;;;;;5.70;2.03;;;;;;;32.82;26.23;102707.03;5140623;28;20410;-53
2022/08/07 09:22:38;;;;;;;3.70;2.17;;;;;;;32.71;26.25;102705.28;5143093;28;20516;-55
2022/08/07 09:25:24;;;;;;;3.95;2.15;;;;;;;32.63;26.37;102702.97;5145886;28;20440;-53
2022/08/07 09:28:03;;;;;;;4.85;2.78;;;;;;;32.54;26.40;102705.31;5139238;28;20530;-53
2022/08/07 09:30:56;;;;;;;4.40;2.10;;;;;;;32.44;26.26;102695.06;5147545;28;20512;-52
2022/08/07 09:33:56;;;;;;;5.47;2.87;;;;;;;32.34;26.43;102697.63;5146027;28;20413;-54
2022/08/07 09:36:34;;;;;;;4.32;2.25;;;;;;;32.15;26.09;102686.16;5146017;28;20423;-54
2022/08/07 09:39:27;;;;;;;4.30;2.30;;;;;;;32.14;26.11;102685.31;5148683;28;20646;-54
2022/08/07 09:42:09;;;;;;;4.15;2.60;;;;;;;32.03;26.11;102688.97;5145636;28;20846;-52
2022/08/07 09:45:06;;;;;;;3.47;2.00;;;;;;;31.40;26.29;102695.50;5148286;28;20431;-52
2022/08/07 09:47:50;;;;;;;6.85;2.50;;;;;;;30.96;26.86;102685.09;5146368;28;20855;-52
2022/08/07 09:50:35;;;;;;;3.63;2.50;;;;;;;30.86;26.80;102686.81;5139822;28;20450;-53
2022/08/07 09:53:11;;;;;;;4.20;2.50;;;;;;;30.86;26.72;102684.06;5137171;28;20409;-53
2022/08/07 09:56:08;;;;;;;4.60;2.97;;;;;;;30.56;26.99;102679.59;5148710;28;20520;-52
2022/08/07 09:59:07;;;;;;;5.35;2.80;;;;;;;30.23;27.31;102678.34;5147429;28;20424;-51
2022/08/07 10:02:00;;;;;;;7.68;2.97;;;;;;;30.31;27.34;102674.41;5142134;28;20412;-51
2022/08/07 10:04:55;;;;;;;7.80;3.28;;;;;;;30.40;27.28;102674.88;5147211;28;20483;-53
2022/08/07 10:07:48;;;;;;;5.10;3.05;;;;;;;30.38;27.19;102666.94;5146133;28;20504;-50
2022/08/07 10:10:36;;;;;;;6.30;1.92;;;;;;;30.52;27.20;102659.34;5148349;28;20707;-50
2022/08/07 10:13:27;;;;;;;4.75;2.38;;;;;;;30.71;27.41;102660.81;5148039;28;20812;-48
2022/08/07 10:16:21;;;;;;;6.80;2.17;;;;;;;30.84;27.31;102653.47;5143257;28;20483;-51
2022/08/07 10:19:31;;;;;;;6.00;1.90;;;;;;;30.76;27.58;102646.47;5148366;28;20937;-52
2022/08/07 10:22:30;;;;;;;6.95;2.58;;;;;;;30.68;27.71;102650.41;5146958;28;20868;-50
2022/08/07 10:25:35;;;;;;;5.93;2.25;;;;;;;30.54;28.12;102649.03;5145842;28;20416;-52
2022/08/07 10:28:38;;;;;;;3.80;1.87;;;;;;;30.37;27.74;102648.09;5121158;28;20453;-49
2022/08/07 10:31:43;;;;;;;4.70;1.80;;;;;;;30.15;28.07;102640.50;5143242;28;20944;-50
2022/08/07 10:34:36;;;;;;;3.45;1.85;;;;;;;29.94;28.09;102641.09;5130720;28;20609;-48
2022/08/07 10:37:28;;;;;;;2.47;1.60;;;;;;;29.88;28.27;102638.22;5142671;28;20959;-49
2022/08/07 10:40:10;;;;;;;4.00;1.45;;;;;;;30.01;28.20;102639.06;5145103;28;20886;-50
2022/08/07 10:42:56;;;;;;;4.00;1.38;;;;;;;30.15;27.99;102640.50;5147936;28;20428;-53
2022/08/07 10:45:36;;;;;;;6.57;1.77;;;;;;;30.26;27.93;102642.44;5148875;28;20503;-50
2022/08/07 10:48:23;;;;;;;3.13;1.52;;;;;;;30.38;27.85;102627.94;5161576;28;20430;-55
2022/08/07 10:51:00;;;;;;;2.20;1.45;;;;;;;30.46;27.88;102638.47;5163944;28;20813;-54
2022/08/07 10:53:40;;;;;;;2.28;1.40;;;;;;;30.55;27.70;102634.31;5150875;28;20429;-53
2022/08/07 10:56:25;;;;;;;3.40;1.40;;;;;;;30.65;27.47;102628.25;5150797;28;20650;-51
2022/08/07 10:59:10;;;;;;;3.07;1.40;;;;;;;30.72;27.46;102626.19;5148881;28;20785;-54
2022/08/07 11:01:53;;;;;;;2.30;1.40;;;;;;;30.83;27.26;102624.53;5151477;28;20745;-53
2022/08/07 11:04:45;;;;;;;3.45;1.23;;;;;;;30.85;27.37;102622.41;5149017;28;20500;-52
2022/08/07 11:07:28;;;;;;;2.75;1.42;;;;;;;30.88;27.04;102621.94;5150720;28;20401;-51
2022/08/07 11:10:08;;;;;;;5.23;1.30;;;;;;;30.91;26.93;102624.13;5129948;28;20414;-54
2022/08/07 11:12:52;;;;;;;2.75;0.95;;;;;;;30.89;27.09;102618.13;5147231;28;20770;-51
2022/08/07 11:15:29;;;;;;;2.88;1.17;;;;;;;30.84;27.04;102620.72;5153095;28;20417;-54
2022/08/07 11:18:08;;;;;;;4.55;1.02;;;;;;;30.70;27.00;102621.00;5144442;28;20420;-51
2022/08/07 11:20:51;;;;;;;2.67;1.00;;;;;;;30.66;26.71;102613.53;5150408;28;20925;-51
2022/08/07 11:23:35;;;;;;;2.28;0.98;;;;;;;30.70;26.81;102607.34;5146800;28;20689;-53
2022/08/07 11:26:14;;;;;;;3.95;1.20;;;;;;;30.77;26.45;102613.53;5147929;28;20749;-55
2022/08/07 11:28:52;;;;;;;2.38;1.40;;;;;;;30.81;26.46;102615.75;5151309;28;25549;-52
2022/08/07 11:31:34;;;;;;;1.85;1.00;;;;;;;30.84;26.57;102604.38;5145736;28;20772;-51
2022/08/07 11:34:17;;;;;;;2.70;1.20;;;;;;;30.94;26.37;102599.09;5150992;28;20976;-53
2022/08/07 11:36:59;;;;;;;3.13;1.35;;;;;;;31.06;26.19;102599.03;5150981;28;20423;-52
2022/08/07 11:39:50;;;;;;;2.88;0.85;;;;;;;31.08;26.41;102595.00;5148179;28;20507;-52
2022/08/07 11:42:32;;;;;;;2.28;1.27;;;;;;;31.07;26.33;102606.19;5150086;28;20452;-47
2022/08/07 11:45:18;;;;;;;5.80;1.48;;;;;;;30.95;26.41;102595.31;5164461;28;20501;-53
2022/08/07 11:48:24;;;;;;;3.25;1.40;;;;;;;30.78;26.47;102596.09;5151107;28;20744;-54
2022/08/07 11:51:19;;;;;;;2.43;1.47;;;;;;;30.84;26.42;102588.00;5143894;28;20458;-45
2022/08/07 11:53:59;;;;;;;2.65;1.83;;;;;;;30.83;26.59;102586.34;5150403;28;20427;-49
2022/08/07 11:56:47;;;;;;;2.33;1.50;;;;;;;30.84;26.67;102583.38;5130691;28;20956;-52
2022/08/07 11:59:44;;;;;;;2.58;1.30;;;;;;;30.77;26.80;102590.84;5126093;28;20554;-54
2022/08/07 12:02:45;;;;;;;1.40;1.30;;;;;;;30.77;26.60;102572.59;5124185;28;20739;-54
2022/08/07 12:05:26;;;;;;;2.47;1.20;;;;;;;30.82;26.43;102580.06;5141050;28;20603;-52
2022/08/07 12:08:05;;;;;;;4.90;1.50;;;;;;;30.74;26.81;102583.16;5140068;28;20690;-49
2022/08/07 12:10:44;;;;;;;2.88;1.17;;;;;;;30.71;26.95;102589.91;5150403;28;20741;-51
2022/08/07 12:13:36;;;;;;;2.37;1.50;;;;;;;30.60;26.85;102582.63;5148854;28;20424;-50
2022/08/07 12:16:15;;;;;;;3.30;1.20;;;;;;;30.64;26.83;102572.88;5147672;28;20417;-52
2022/08/07 12:18:57;;;;;;;4.25;1.45;;;;;;;30.61;26.83;102573.34;5149050;28;20850;-50